TK981 LTFJ-LTBR
Flight info
| Callsign | TK981 |
|---|---|
| Flight time | 0h 23m |
| Altitude | 2000 |
| Route | YAA |
| Aircraft | C208/L-SDFGR/C |
Departure
| Time | 2026-04-16 09:32 |
|---|---|
| Airport | Istanbul Sabiha Gökçen International Airport (LTFJ) |
Arrival
| Time | 2026-04-16 09:56 |
|---|---|
| Airport | Bursa Yenişehir Airport (LTBR) |
| Time | Latitude | Longitude | Altitude | Speed | Heading |
|---|---|---|---|---|---|
| 2026-04-16 09:16 | 40.90230 | 29.31146 | 316 ft | 0 kts | 154° |
| 2026-04-16 09:25 | 40.90235 | 29.31143 | 316 ft | 2 kts | 152° |
| 2026-04-16 09:25 | 40.90250 | 29.31132 | 316 ft | 2 kts | 149° |
| 2026-04-16 09:25 | 40.90256 | 29.31127 | 316 ft | 0 kts | 147° |
| 2026-04-16 09:25 | 40.90267 | 29.31120 | 316 ft | 2 kts | 169° |
| 2026-04-16 09:26 | 40.90277 | 29.31122 | 316 ft | 0 kts | 229° |
| 2026-04-16 09:26 | 40.90276 | 29.31122 | 316 ft | 0 kts | 229° |
| 2026-04-16 09:26 | 40.90272 | 29.31115 | 316 ft | 3 kts | 237° |
| 2026-04-16 09:26 | 40.90262 | 29.31081 | 316 ft | 6 kts | 253° |
| 2026-04-16 09:27 | 40.90255 | 29.31049 | 316 ft | 2 kts | 253° |
| 2026-04-16 09:27 | 40.90244 | 29.31001 | 316 ft | 8 kts | 252° |
| 2026-04-16 09:27 | 40.90202 | 29.30941 | 316 ft | 10 kts | 191° |
| 2026-04-16 09:27 | 40.90146 | 29.30947 | 316 ft | 8 kts | 178° |
| 2026-04-16 09:28 | 40.90086 | 29.30935 | 318 ft | 9 kts | 218° |
| 2026-04-16 09:28 | 40.90045 | 29.30849 | 316 ft | 13 kts | 240° |
| 2026-04-16 09:28 | 40.89996 | 29.30726 | 316 ft | 17 kts | 242° |
| 2026-04-16 09:28 | 40.89938 | 29.30578 | 316 ft | 19 kts | 245° |
| 2026-04-16 09:29 | 40.89878 | 29.30412 | 316 ft | 21 kts | 242° |
| 2026-04-16 09:29 | 40.89813 | 29.30230 | 316 ft | 22 kts | 246° |
| 2026-04-16 09:29 | 40.89750 | 29.30040 | 316 ft | 23 kts | 245° |
| 2026-04-16 09:29 | 40.89672 | 29.29845 | 315 ft | 24 kts | 242° |
| 2026-04-16 09:30 | 40.89596 | 29.29642 | 315 ft | 25 kts | 244° |
| 2026-04-16 09:30 | 40.89519 | 29.29435 | 315 ft | 24 kts | 244° |
| 2026-04-16 09:30 | 40.89464 | 29.29298 | 315 ft | 13 kts | 228° |
| 2026-04-16 09:30 | 40.89382 | 29.29263 | 315 ft | 14 kts | 161° |
| 2026-04-16 09:31 | 40.89316 | 29.29304 | 316 ft | 10 kts | 151° |
| 2026-04-16 09:31 | 40.89297 | 29.29390 | 316 ft | 11 kts | 73° |
| 2026-04-16 09:31 | 40.89411 | 29.29702 | 316 ft | 71 kts | 63° |
| 2026-04-16 09:31 | 40.89644 | 29.30409 | 477 ft | 94 kts | 66° |
| 2026-04-16 09:32 | 40.89921 | 29.31316 | 510 ft | 116 kts | 63° |
| 2026-04-16 09:32 | 40.90270 | 29.32273 | 729 ft | 113 kts | 62° |
| 2026-04-16 09:32 | 40.90633 | 29.33218 | 874 ft | 115 kts | 62° |
| 2026-04-16 09:32 | 40.90992 | 29.34158 | 1078 ft | 117 kts | 61° |
| 2026-04-16 09:33 | 40.91369 | 29.35112 | 1299 ft | 116 kts | 60° |
| 2026-04-16 09:33 | 40.91755 | 29.36051 | 1496 ft | 117 kts | 60° |
| 2026-04-16 09:33 | 40.91903 | 29.37082 | 1711 ft | 121 kts | 105° |
| 2026-04-16 09:33 | 40.91267 | 29.37798 | 1899 ft | 135 kts | 166° |
| 2026-04-16 09:34 | 40.90248 | 29.37741 | 1937 ft | 158 kts | 186° |
| 2026-04-16 09:34 | 40.89107 | 29.37560 | 1934 ft | 170 kts | 186° |
| 2026-04-16 09:34 | 40.87911 | 29.37374 | 1937 ft | 175 kts | 186° |
| 2026-04-16 09:34 | 40.86690 | 29.37158 | 1939 ft | 179 kts | 193° |
| 2026-04-16 09:35 | 40.85513 | 29.36604 | 1938 ft | 180 kts | 198° |
| 2026-04-16 09:35 | 40.84304 | 29.36124 | 1925 ft | 182 kts | 196° |
| 2026-04-16 09:35 | 40.83096 | 29.35672 | 1928 ft | 183 kts | 196° |
| 2026-04-16 09:35 | 40.81873 | 29.35214 | 1928 ft | 182 kts | 196° |
| 2026-04-16 09:36 | 40.80647 | 29.34753 | 1923 ft | 183 kts | 196° |
| 2026-04-16 09:36 | 40.79421 | 29.34299 | 1923 ft | 182 kts | 196° |
| 2026-04-16 09:36 | 40.78193 | 29.33853 | 1923 ft | 184 kts | 196° |
| 2026-04-16 09:36 | 40.76981 | 29.33408 | 1917 ft | 181 kts | 196° |
| 2026-04-16 09:37 | 40.75767 | 29.32969 | 1917 ft | 181 kts | 195° |
| 2026-04-16 09:37 | 40.74551 | 29.32527 | 1914 ft | 179 kts | 196° |
| 2026-04-16 09:37 | 40.73344 | 29.32093 | 1915 ft | 180 kts | 195° |
| 2026-04-16 09:37 | 40.72138 | 29.31649 | 1915 ft | 180 kts | 196° |
| 2026-04-16 09:38 | 40.70942 | 29.31219 | 1916 ft | 180 kts | 195° |
| 2026-04-16 09:38 | 40.69732 | 29.30785 | 1908 ft | 179 kts | 196° |
| 2026-04-16 09:38 | 40.68534 | 29.30358 | 1906 ft | 178 kts | 196° |
| 2026-04-16 09:38 | 40.67340 | 29.29938 | 1910 ft | 178 kts | 196° |
| 2026-04-16 09:39 | 40.66129 | 29.29510 | 1912 ft | 180 kts | 195° |
| 2026-04-16 09:39 | 40.64927 | 29.29080 | 1912 ft | 181 kts | 195° |
| 2026-04-16 09:39 | 40.63710 | 29.28640 | 1905 ft | 181 kts | 195° |
| 2026-04-16 09:39 | 40.62497 | 29.28203 | 1900 ft | 180 kts | 196° |
| 2026-04-16 09:40 | 40.61285 | 29.27766 | 1901 ft | 179 kts | 196° |
| 2026-04-16 09:40 | 40.60067 | 29.27529 | 1891 ft | 177 kts | 172° |
| 2026-04-16 09:40 | 40.58940 | 29.28093 | 1891 ft | 178 kts | 143° |
| 2026-04-16 09:40 | 40.57998 | 29.29162 | 1889 ft | 179 kts | 141° |
| 2026-04-16 09:41 | 40.56837 | 29.29750 | 1907 ft | 180 kts | 167° |
| 2026-04-16 09:41 | 40.55608 | 29.30101 | 1905 ft | 181 kts | 168° |
| 2026-04-16 09:41 | 40.54375 | 29.30447 | 1902 ft | 181 kts | 168° |
| 2026-04-16 09:41 | 40.53138 | 29.30791 | 1899 ft | 182 kts | 167° |
| 2026-04-16 09:42 | 40.52325 | 29.31064 | 1890 ft | 182 kts | 156° |
| 2026-04-16 09:42 | 40.51194 | 29.32596 | 1885 ft | 177 kts | 120° |
| 2026-04-16 09:42 | 40.50561 | 29.33990 | 1883 ft | 177 kts | 119° |
| 2026-04-16 09:42 | 40.50145 | 29.34915 | 1884 ft | 177 kts | 118° |
| 2026-04-16 09:43 | 40.49523 | 29.36310 | 1886 ft | 178 kts | 119° |
| 2026-04-16 09:43 | 40.48699 | 29.38177 | 1882 ft | 177 kts | 119° |
| 2026-04-16 09:43 | 40.48097 | 29.39569 | 1883 ft | 174 kts | 119° |
| 2026-04-16 09:43 | 40.47693 | 29.40509 | 1885 ft | 174 kts | 118° |
| 2026-04-16 09:44 | 40.47097 | 29.41875 | 1884 ft | 175 kts | 119° |
| 2026-04-16 09:44 | 40.46487 | 29.43262 | 1883 ft | 176 kts | 119° |
| 2026-04-16 09:44 | 40.45871 | 29.44651 | 1884 ft | 176 kts | 118° |
| 2026-04-16 09:44 | 40.45259 | 29.46046 | 1883 ft | 175 kts | 118° |
| 2026-04-16 09:45 | 40.44651 | 29.47435 | 1887 ft | 175 kts | 119° |
| 2026-04-16 09:45 | 40.44045 | 29.48831 | 1880 ft | 176 kts | 119° |
| 2026-04-16 09:45 | 40.43448 | 29.50219 | 1881 ft | 177 kts | 118° |
| 2026-04-16 09:45 | 40.42835 | 29.51629 | 1862 ft | 177 kts | 118° |
| 2026-04-16 09:46 | 40.42222 | 29.53039 | 1860 ft | 178 kts | 119° |
| 2026-04-16 09:46 | 40.41607 | 29.54447 | 1864 ft | 177 kts | 120° |
| 2026-04-16 09:46 | 40.41008 | 29.55860 | 1865 ft | 177 kts | 118° |
| 2026-04-16 09:46 | 40.40420 | 29.57252 | 1863 ft | 176 kts | 119° |
| 2026-04-16 09:47 | 40.39825 | 29.58664 | 1864 ft | 176 kts | 119° |
| 2026-04-16 09:47 | 40.39236 | 29.60060 | 1926 ft | 172 kts | 119° |
| 2026-04-16 09:47 | 40.38672 | 29.61393 | 2097 ft | 166 kts | 118° |
| 2026-04-16 09:47 | 40.38106 | 29.62715 | 2281 ft | 167 kts | 118° |
| 2026-04-16 09:48 | 40.37535 | 29.64045 | 2467 ft | 166 kts | 118° |
| 2026-04-16 09:48 | 40.36968 | 29.65368 | 2635 ft | 166 kts | 118° |
| 2026-04-16 09:48 | 40.36407 | 29.66685 | 2803 ft | 164 kts | 119° |
| 2026-04-16 09:48 | 40.35851 | 29.67999 | 2893 ft | 168 kts | 119° |
| 2026-04-16 09:49 | 40.35273 | 29.69348 | 2897 ft | 174 kts | 119° |
| 2026-04-16 09:49 | 40.34670 | 29.70741 | 2893 ft | 176 kts | 123° |
| 2026-04-16 09:49 | 40.33793 | 29.71882 | 2897 ft | 179 kts | 139° |
| 2026-04-16 09:49 | 40.32870 | 29.72894 | 2885 ft | 165 kts | 141° |
| 2026-04-16 09:50 | 40.31858 | 29.73451 | 2895 ft | 156 kts | 168° |
| 2026-04-16 09:50 | 40.30811 | 29.73715 | 2890 ft | 153 kts | 169° |
| 2026-04-16 09:50 | 40.29776 | 29.73986 | 2889 ft | 150 kts | 169° |
| 2026-04-16 09:50 | 40.28781 | 29.73838 | 2894 ft | 145 kts | 214° |
| 2026-04-16 09:51 | 40.28272 | 29.72778 | 2896 ft | 139 kts | 267° |
| 2026-04-16 09:51 | 40.28592 | 29.71649 | 2896 ft | 134 kts | 307° |
| 2026-04-16 09:51 | 40.28756 | 29.70396 | 2638 ft | 148 kts | 264° |
| 2026-04-16 09:51 | 40.28556 | 29.69177 | 2677 ft | 119 kts | 263° |
| 2026-04-16 09:52 | 40.28414 | 29.68146 | 2496 ft | 118 kts | 257° |
| 2026-04-16 09:52 | 40.28010 | 29.67203 | 2244 ft | 117 kts | 257° |
| 2026-04-16 09:52 | 40.27757 | 29.66238 | 2072 ft | 103 kts | 255° |
| 2026-04-16 09:52 | 40.27554 | 29.65411 | 1950 ft | 90 kts | 256° |
| 2026-04-16 09:53 | 40.27381 | 29.64659 | 1834 ft | 82 kts | 259° |
| 2026-04-16 09:53 | 40.27223 | 29.63961 | 1726 ft | 81 kts | 259° |
| 2026-04-16 09:53 | 40.27064 | 29.63230 | 1621 ft | 88 kts | 258° |
| 2026-04-16 09:53 | 40.26891 | 29.62429 | 1482 ft | 93 kts | 257° |
| 2026-04-16 09:54 | 40.26716 | 29.61605 | 1363 ft | 93 kts | 258° |
| 2026-04-16 09:54 | 40.26544 | 29.60792 | 1245 ft | 91 kts | 257° |
| 2026-04-16 09:54 | 40.26380 | 29.60005 | 1124 ft | 87 kts | 255° |
| 2026-04-16 09:54 | 40.26217 | 29.59254 | 1012 ft | 85 kts | 256° |
| 2026-04-16 09:55 | 40.26063 | 29.58529 | 906 ft | 82 kts | 258° |
| 2026-04-16 09:55 | 40.25911 | 29.57804 | 795 ft | 82 kts | 259° |
| 2026-04-16 09:55 | 40.25780 | 29.57112 | 770 ft | 73 kts | 253° |
| 2026-04-16 09:55 | 40.25656 | 29.56577 | 769 ft | 57 kts | 256° |
| 2026-04-16 09:56 | 40.25552 | 29.56048 | 769 ft | 53 kts | 253° |
| 2026-04-16 09:56 | 40.25458 | 29.55639 | 769 ft | 42 kts | 253° |
| 2026-04-16 09:56 | 40.25382 | 29.55306 | 769 ft | 35 kts | 253° |
| 2026-04-16 09:56 | 40.25338 | 29.55032 | 769 ft | 23 kts | 265° |
| 2026-04-16 09:57 | 40.25275 | 29.54846 | 769 ft | 22 kts | 253° |
| 2026-04-16 09:57 | 40.25250 | 29.54657 | 769 ft | 20 kts | 263° |
| 2026-04-16 09:57 | 40.25308 | 29.54519 | 769 ft | 18 kts | 341° |
| 2026-04-16 09:57 | 40.25421 | 29.54487 | 769 ft | 16 kts | 349° |